sensor_id;sensor_type;location;lat;lon;timestamp;P1;durP1;ratioP1;P2;durP2;ratioP2
16800;SDS011;8518;53.236;10.384;2023-04-24T00:01:11;3.80;;;3.30;;
16800;SDS011;8518;53.236;10.384;2023-04-24T00:07:00;3.40;;;3.10;;
16800;SDS011;8518;53.236;10.384;2023-04-24T00:09:26;3.63;;;3.33;;
16800;SDS011;8518;53.236;10.384;2023-04-24T00:11:52;3.50;;;3.03;;
16800;SDS011;8518;53.236;10.384;2023-04-24T00:17:41;4.10;;;3.63;;
16800;SDS011;8518;53.236;10.384;2023-04-24T00:20:07;5.33;;;3.50;;
16800;SDS011;8518;53.236;10.384;2023-04-24T00:22:33;3.67;;;3.30;;
16800;SDS011;8518;53.236;10.384;2023-04-24T00:24:58;3.60;;;3.30;;
16800;SDS011;8518;53.236;10.384;2023-04-24T00:27:24;3.87;;;3.10;;
16800;SDS011;8518;53.236;10.384;2023-04-24T00:29:50;3.40;;;3.20;;
16800;SDS011;8518;53.236;10.384;2023-04-24T00:32:15;3.40;;;3.10;;
16800;SDS011;8518;53.236;10.384;2023-04-24T00:34:42;4.10;;;3.70;;
16800;SDS011;8518;53.236;10.384;2023-04-24T00:37:09;4.20;;;3.80;;
16800;SDS011;8518;53.236;10.384;2023-04-24T00:39:34;3.40;;;3.10;;
16800;SDS011;8518;53.236;10.384;2023-04-24T00:42:00;3.70;;;3.37;;
16800;SDS011;8518;53.236;10.384;2023-04-24T00:47:49;3.67;;;3.20;;
16800;SDS011;8518;53.236;10.384;2023-04-24T00:50:17;3.47;;;3.17;;
16800;SDS011;8518;53.236;10.384;2023-04-24T00:56:06;3.13;;;2.93;;
16800;SDS011;8518;53.236;10.384;2023-04-24T00:58:34;4.93;;;3.30;;
16800;SDS011;8518;53.236;10.384;2023-04-24T01:01:00;3.37;;;3.10;;
16800;SDS011;8518;53.236;10.384;2023-04-24T01:06:49;4.30;;;2.87;;
16800;SDS011;8518;53.236;10.384;2023-04-24T01:09:17;3.30;;;3.00;;
16800;SDS011;8518;53.236;10.384;2023-04-24T01:11:46;4.03;;;3.13;;
16800;SDS011;8518;53.236;10.384;2023-04-24T01:17:34;3.30;;;2.87;;
16800;SDS011;8518;53.236;10.384;2023-04-24T01:20:00;2.90;;;2.60;;
16800;SDS011;8518;53.236;10.384;2023-04-24T01:22:27;4.00;;;2.83;;
16800;SDS011;8518;53.236;10.384;2023-04-24T01:24:53;2.60;;;2.40;;
16800;SDS011;8518;53.236;10.384;2023-04-24T01:27:19;3.60;;;2.20;;
16800;SDS011;8518;53.236;10.384;2023-04-24T01:29:45;4.77;;;2.27;;
16800;SDS011;8518;53.236;10.384;2023-04-24T01:32:12;1.80;;;1.70;;
16800;SDS011;8518;53.236;10.384;2023-04-24T01:34:38;3.97;;;1.93;;
16800;SDS011;8518;53.236;10.384;2023-04-24T01:37:05;1.90;;;1.80;;
16800;SDS011;8518;53.236;10.384;2023-04-24T01:39:31;3.33;;;1.87;;
16800;SDS011;8518;53.236;10.384;2023-04-24T01:41:58;1.50;;;1.40;;
16800;SDS011;8518;53.236;10.384;2023-04-24T01:47:47;1.43;;;1.30;;
16800;SDS011;8518;53.236;10.384;2023-04-24T01:50:14;1.40;;;1.27;;
16800;SDS011;8518;53.236;10.384;2023-04-24T01:52:41;1.93;;;1.17;;
16800;SDS011;8518;53.236;10.384;2023-04-24T01:55:07;1.17;;;1.07;;
16800;SDS011;8518;53.236;10.384;2023-04-24T01:57:33;1.63;;;1.30;;
16800;SDS011;8518;53.236;10.384;2023-04-24T01:59:59;1.30;;;1.20;;
16800;SDS011;8518;53.236;10.384;2023-04-24T02:02:25;1.37;;;1.20;;
16800;SDS011;8518;53.236;10.384;2023-04-24T02:04:53;1.67;;;1.20;;
16800;SDS011;8518;53.236;10.384;2023-04-24T02:07:19;0.97;;;0.97;;
16800;SDS011;8518;53.236;10.384;2023-04-24T02:09:45;1.87;;;1.20;;
16800;SDS011;8518;53.236;10.384;2023-04-24T02:12:10;1.20;;;1.10;;
16800;SDS011;8518;53.236;10.384;2023-04-24T02:17:58;1.50;;;1.30;;
16800;SDS011;8518;53.236;10.384;2023-04-24T02:20:24;1.63;;;1.23;;
16800;SDS011;8518;53.236;10.384;2023-04-24T02:26:11;1.50;;;1.40;;
16800;SDS011;8518;53.236;10.384;2023-04-24T02:28:37;1.47;;;1.10;;
16800;SDS011;8518;53.236;10.384;2023-04-24T02:31:04;2.63;;;1.23;;
16800;SDS011;8518;53.236;10.384;2023-04-24T02:36:53;1.40;;;1.30;;
16800;SDS011;8518;53.236;10.384;2023-04-24T02:39:19;1.20;;;1.10;;
16800;SDS011;8518;53.236;10.384;2023-04-24T02:41:44;1.33;;;1.23;;
16800;SDS011;8518;53.236;10.384;2023-04-24T02:47:32;1.97;;;0.90;;
16800;SDS011;8518;53.236;10.384;2023-04-24T02:49:58;0.90;;;0.90;;
16800;SDS011;8518;53.236;10.384;2023-04-24T02:52:27;2.73;;;1.00;;
16800;SDS011;8518;53.236;10.384;2023-04-24T02:54:53;1.40;;;1.00;;
16800;SDS011;8518;53.236;10.384;2023-04-24T02:57:20;1.40;;;1.20;;
16800;SDS011;8518;53.236;10.384;2023-04-24T02:59:45;0.90;;;0.90;;
16800;SDS011;8518;53.236;10.384;2023-04-24T03:02:11;1.50;;;1.10;;
16800;SDS011;8518;53.236;10.384;2023-04-24T03:07:59;2.07;;;1.00;;
16800;SDS011;8518;53.236;10.384;2023-04-24T03:10:25;1.67;;;1.07;;
16800;SDS011;8518;53.236;10.384;2023-04-24T03:16:15;0.80;;;0.80;;
16800;SDS011;8518;53.236;10.384;2023-04-24T03:22:02;1.60;;;1.00;;
16800;SDS011;8518;53.236;10.384;2023-04-24T03:27:51;1.20;;;1.10;;
16800;SDS011;8518;53.236;10.384;2023-04-24T03:30:17;0.97;;;0.87;;
16800;SDS011;8518;53.236;10.384;2023-04-24T03:36:04;0.80;;;0.80;;
16800;SDS011;8518;53.236;10.384;2023-04-24T03:38:30;0.77;;;0.77;;
16800;SDS011;8518;53.236;10.384;2023-04-24T03:40:56;1.07;;;0.87;;
16800;SDS011;8518;53.236;10.384;2023-04-24T03:46:44;0.97;;;0.83;;
16800;SDS011;8518;53.236;10.384;2023-04-24T03:49:09;0.90;;;0.70;;
16800;SDS011;8518;53.236;10.384;2023-04-24T03:51:35;1.57;;;0.80;;
16800;SDS011;8518;53.236;10.384;2023-04-24T03:57:23;1.00;;;0.70;;
16800;SDS011;8518;53.236;10.384;2023-04-24T03:59:49;0.70;;;0.70;;
16800;SDS011;8518;53.236;10.384;2023-04-24T04:02:15;0.67;;;0.67;;
16800;SDS011;8518;53.236;10.384;2023-04-24T04:04:41;1.27;;;0.80;;
16800;SDS011;8518;53.236;10.384;2023-04-24T04:07:06;0.90;;;0.80;;
16800;SDS011;8518;53.236;10.384;2023-04-24T04:09:32;0.80;;;0.80;;
16800;SDS011;8518;53.236;10.384;2023-04-24T04:11:58;1.57;;;0.73;;
16800;SDS011;8518;53.236;10.384;2023-04-24T04:17:47;0.60;;;0.60;;
16800;SDS011;8518;53.236;10.384;2023-04-24T04:23:35;0.80;;;0.60;;
16800;SDS011;8518;53.236;10.384;2023-04-24T04:26:04;0.50;;;0.50;;
16800;SDS011;8518;53.236;10.384;2023-04-24T04:28:30;0.90;;;0.60;;
16800;SDS011;8518;53.236;10.384;2023-04-24T04:30:56;1.53;;;0.70;;
16800;SDS011;8518;53.236;10.384;2023-04-24T04:36:44;1.63;;;0.80;;
16800;SDS011;8518;53.236;10.384;2023-04-24T04:39:11;0.53;;;0.53;;
16800;SDS011;8518;53.236;10.384;2023-04-24T04:41:36;1.13;;;0.80;;
16800;SDS011;8518;53.236;10.384;2023-04-24T04:47:27;0.57;;;0.57;;
16800;SDS011;8518;53.236;10.384;2023-04-24T04:49:53;0.70;;;0.50;;
16800;SDS011;8518;53.236;10.384;2023-04-24T04:52:19;0.50;;;0.50;;
16800;SDS011;8518;53.236;10.384;2023-04-24T04:54:45;0.73;;;0.50;;
16800;SDS011;8518;53.236;10.384;2023-04-24T04:57:11;0.60;;;0.60;;
16800;SDS011;8518;53.236;10.384;2023-04-24T04:59:39;1.70;;;0.60;;
16800;SDS011;8518;53.236;10.384;2023-04-24T05:02:06;0.50;;;0.50;;
16800;SDS011;8518;53.236;10.384;2023-04-24T05:07:54;1.27;;;0.63;;
16800;SDS011;8518;53.236;10.384;2023-04-24T05:13:42;1.47;;;0.87;;
16800;SDS011;8518;53.236;10.384;2023-04-24T05:16:11;1.10;;;0.57;;
16800;SDS011;8518;53.236;10.384;2023-04-24T05:18:36;0.80;;;0.63;;
16800;SDS011;8518;53.236;10.384;2023-04-24T05:21:02;0.60;;;0.60;;
16800;SDS011;8518;53.236;10.384;2023-04-24T05:26:49;0.80;;;0.60;;
16800;SDS011;8518;53.236;10.384;2023-04-24T05:29:15;1.60;;;0.60;;
16800;SDS011;8518;53.236;10.384;2023-04-24T05:31:41;1.10;;;0.70;;
16800;SDS011;8518;53.236;10.384;2023-04-24T05:37:29;1.43;;;0.70;;
16800;SDS011;8518;53.236;10.384;2023-04-24T05:39:54;0.77;;;0.70;;
16800;SDS011;8518;53.236;10.384;2023-04-24T05:42:20;1.43;;;0.80;;
16800;SDS011;8518;53.236;10.384;2023-04-24T05:44:45;1.10;;;0.97;;
16800;SDS011;8518;53.236;10.384;2023-04-24T05:47:11;1.57;;;0.80;;
16800;SDS011;8518;53.236;10.384;2023-04-24T05:49:38;0.67;;;0.67;;
16800;SDS011;8518;53.236;10.384;2023-04-24T05:52:03;0.80;;;0.80;;
16800;SDS011;8518;53.236;10.384;2023-04-24T05:57:53;0.90;;;0.90;;
16800;SDS011;8518;53.236;10.384;2023-04-24T06:00:19;2.00;;;1.03;;
16800;SDS011;8518;53.236;10.384;2023-04-24T06:06:07;1.07;;;0.80;;
16800;SDS011;8518;53.236;10.384;2023-04-24T06:08:34;1.43;;;0.80;;
16800;SDS011;8518;53.236;10.384;2023-04-24T06:11:03;0.80;;;0.80;;
16800;SDS011;8518;53.236;10.384;2023-04-24T06:16:51;1.67;;;0.77;;
16800;SDS011;8518;53.236;10.384;2023-04-24T06:19:18;0.60;;;0.60;;
16800;SDS011;8518;53.236;10.384;2023-04-24T06:21:44;1.10;;;0.63;;
16800;SDS011;8518;53.236;10.384;2023-04-24T06:27:31;2.93;;;0.80;;
16800;SDS011;8518;53.236;10.384;2023-04-24T06:33:19;1.23;;;0.50;;
16800;SDS011;8518;53.236;10.384;2023-04-24T06:35:45;1.00;;;0.63;;
16800;SDS011;8518;53.236;10.384;2023-04-24T06:38:10;1.43;;;0.70;;
16800;SDS011;8518;53.236;10.384;2023-04-24T06:40:36;0.90;;;0.70;;
16800;SDS011;8518;53.236;10.384;2023-04-24T06:46:25;0.97;;;0.60;;
16800;SDS011;8518;53.236;10.384;2023-04-24T06:48:52;0.83;;;0.50;;
16800;SDS011;8518;53.236;10.384;2023-04-24T06:51:24;0.50;;;0.50;;
16800;SDS011;8518;53.236;10.384;2023-04-24T06:57:13;0.50;;;0.50;;
16800;SDS011;8518;53.236;10.384;2023-04-24T06:59:41;0.33;;;0.33;;
16800;SDS011;8518;53.236;10.384;2023-04-24T07:02:09;0.70;;;0.70;;
16800;SDS011;8518;53.236;10.384;2023-04-24T07:07:57;1.50;;;0.60;;
16800;SDS011;8518;53.236;10.384;2023-04-24T07:10:23;1.43;;;0.50;;
16800;SDS011;8518;53.236;10.384;2023-04-24T07:16:15;0.90;;;0.47;;
16800;SDS011;8518;53.236;10.384;2023-04-24T07:18:44;1.17;;;0.70;;
16800;SDS011;8518;53.236;10.384;2023-04-24T07:21:10;0.67;;;0.50;;
16800;SDS011;8518;53.236;10.384;2023-04-24T07:26:58;1.17;;;0.67;;
16800;SDS011;8518;53.236;10.384;2023-04-24T07:29:27;1.70;;;0.50;;
16800;SDS011;8518;53.236;10.384;2023-04-24T07:31:55;0.50;;;0.50;;
16800;SDS011;8518;53.236;10.384;2023-04-24T07:37:43;1.37;;;0.53;;
16800;SDS011;8518;53.236;10.384;2023-04-24T07:40:11;1.53;;;0.70;;
16800;SDS011;8518;53.236;10.384;2023-04-24T07:42:37;0.97;;;0.60;;
16800;SDS011;8518;53.236;10.384;2023-04-24T07:45:05;1.03;;;0.57;;
16800;SDS011;8518;53.236;10.384;2023-04-24T07:47:31;1.33;;;0.53;;
16800;SDS011;8518;53.236;10.384;2023-04-24T07:49:59;1.00;;;0.50;;
16800;SDS011;8518;53.236;10.384;2023-04-24T07:52:29;0.83;;;0.50;;
16800;SDS011;8518;53.236;10.384;2023-04-24T07:54:55;0.83;;;0.60;;
16800;SDS011;8518;53.236;10.384;2023-04-24T07:57:25;0.80;;;0.50;;
16800;SDS011;8518;53.236;10.384;2023-04-24T07:59:50;0.73;;;0.60;;
16800;SDS011;8518;53.236;10.384;2023-04-24T08:02:16;2.07;;;0.70;;
16800;SDS011;8518;53.236;10.384;2023-04-24T08:04:45;1.20;;;0.63;;
16800;SDS011;8518;53.236;10.384;2023-04-24T08:07:13;0.70;;;0.60;;
16800;SDS011;8518;53.236;10.384;2023-04-24T08:09:39;0.70;;;0.70;;
16800;SDS011;8518;53.236;10.384;2023-04-24T08:12:05;1.13;;;0.60;;
16800;SDS011;8518;53.236;10.384;2023-04-24T08:17:52;4.00;;;1.10;;
16800;SDS011;8518;53.236;10.384;2023-04-24T08:20:19;1.57;;;1.20;;
16800;SDS011;8518;53.236;10.384;2023-04-24T08:26:10;1.10;;;1.00;;
16800;SDS011;8518;53.236;10.384;2023-04-24T08:28:36;1.30;;;1.20;;
16800;SDS011;8518;53.236;10.384;2023-04-24T08:31:02;1.80;;;1.23;;
16800;SDS011;8518;53.236;10.384;2023-04-24T08:36:51;1.93;;;1.23;;
16800;SDS011;8518;53.236;10.384;2023-04-24T08:39:17;1.20;;;1.10;;
16800;SDS011;8518;53.236;10.384;2023-04-24T08:41:42;1.20;;;1.10;;
16800;SDS011;8518;53.236;10.384;2023-04-24T08:47:31;2.20;;;1.07;;
16800;SDS011;8518;53.236;10.384;2023-04-24T08:49:58;1.30;;;1.20;;
16800;SDS011;8518;53.236;10.384;2023-04-24T08:52:27;2.47;;;1.60;;
16800;SDS011;8518;53.236;10.384;2023-04-24T08:54:59;2.10;;;1.30;;
16800;SDS011;8518;53.236;10.384;2023-04-24T08:57:26;1.80;;;1.40;;
16800;SDS011;8518;53.236;10.384;2023-04-24T08:59:56;3.07;;;1.80;;
16800;SDS011;8518;53.236;10.384;2023-04-24T09:02:23;1.60;;;1.50;;
16800;SDS011;8518;53.236;10.384;2023-04-24T09:04:49;2.00;;;1.80;;
16800;SDS011;8518;53.236;10.384;2023-04-24T09:07:19;3.00;;;2.00;;
16800;SDS011;8518;53.236;10.384;2023-04-24T09:09:47;3.20;;;2.30;;
16800;SDS011;8518;53.236;10.384;2023-04-24T09:12:15;2.90;;;2.60;;
16800;SDS011;8518;53.236;10.384;2023-04-24T09:14:40;4.03;;;3.23;;
16800;SDS011;8518;53.236;10.384;2023-04-24T09:17:09;3.07;;;2.83;;
16800;SDS011;8518;53.236;10.384;2023-04-24T09:19:40;3.53;;;3.13;;
16800;SDS011;8518;53.236;10.384;2023-04-24T09:22:06;5.17;;;3.50;;
16800;SDS011;8518;53.236;10.384;2023-04-24T09:27:54;4.93;;;3.53;;
16800;SDS011;8518;53.236;10.384;2023-04-24T09:30:25;5.20;;;3.80;;
16800;SDS011;8518;53.236;10.384;2023-04-24T09:36:12;4.40;;;3.00;;
16800;SDS011;8518;53.236;10.384;2023-04-24T09:38:42;7.13;;;3.07;;
16800;SDS011;8518;53.236;10.384;2023-04-24T09:41:08;3.20;;;2.70;;
16800;SDS011;8518;53.236;10.384;2023-04-24T09:47:00;2.93;;;2.70;;
16800;SDS011;8518;53.236;10.384;2023-04-24T09:49:27;3.00;;;2.70;;
16800;SDS011;8518;53.236;10.384;2023-04-24T09:52:04;3.30;;;3.00;;
16800;SDS011;8518;53.236;10.384;2023-04-24T10:00:34;4.87;;;3.80;;
16800;SDS011;8518;53.236;10.384;2023-04-24T10:06:22;5.27;;;4.47;;
16800;SDS011;8518;53.236;10.384;2023-04-24T10:12:10;4.13;;;3.73;;
16800;SDS011;8518;53.236;10.384;2023-04-24T10:17:58;5.00;;;4.10;;
16800;SDS011;8518;53.236;10.384;2023-04-24T10:20:27;4.63;;;3.93;;
16800;SDS011;8518;53.236;10.384;2023-04-24T10:26:18;7.77;;;3.70;;
16800;SDS011;8518;53.236;10.384;2023-04-24T10:32:07;4.43;;;4.03;;
16800;SDS011;8518;53.236;10.384;2023-04-24T10:38:05;4.33;;;3.93;;
16800;SDS011;8518;53.236;10.384;2023-04-24T10:40:38;4.80;;;4.13;;
16800;SDS011;8518;53.236;10.384;2023-04-24T10:46:47;5.20;;;4.70;;
16800;SDS011;8518;53.236;10.384;2023-04-24T10:49:29;4.60;;;4.20;;
16800;SDS011;8518;53.236;10.384;2023-04-24T10:51:59;5.87;;;4.60;;
16800;SDS011;8518;53.236;10.384;2023-04-24T10:58:02;5.83;;;4.37;;
16800;SDS011;8518;53.236;10.384;2023-04-24T11:00:28;4.18;;;3.78;;
16800;SDS011;8518;53.236;10.384;2023-04-24T11:06:16;4.28;;;3.67;;
16800;SDS011;8518;53.236;10.384;2023-04-24T11:09:08;4.75;;;3.22;;
16800;SDS011;8518;53.236;10.384;2023-04-24T11:11:37;3.42;;;3.08;;
16800;SDS011;8518;53.236;10.384;2023-04-24T11:17:34;3.47;;;3.17;;
16800;SDS011;8518;53.236;10.384;2023-04-24T11:20:09;3.20;;;2.90;;
16800;SDS011;8518;53.236;10.384;2023-04-24T11:22:37;3.43;;;2.73;;
16800;SDS011;8518;53.236;10.384;2023-04-24T11:25:07;2.87;;;2.53;;
16800;SDS011;8518;53.236;10.384;2023-04-24T11:27:41;3.33;;;2.03;;
16800;SDS011;8518;53.236;10.384;2023-04-24T11:30:19;3.10;;;1.90;;
16800;SDS011;8518;53.236;10.384;2023-04-24T11:36:09;2.20;;;2.00;;
16800;SDS011;8518;53.236;10.384;2023-04-24T11:38:35;2.40;;;2.20;;
16800;SDS011;8518;53.236;10.384;2023-04-24T11:41:01;2.47;;;1.80;;
16800;SDS011;8518;53.236;10.384;2023-04-24T11:46:50;2.47;;;2.27;;
16800;SDS011;8518;53.236;10.384;2023-04-24T11:49:15;2.73;;;2.53;;
16800;SDS011;8518;53.236;10.384;2023-04-24T11:51:43;2.70;;;2.50;;
16800;SDS011;8518;53.236;10.384;2023-04-24T11:57:31;3.10;;;2.80;;
16800;SDS011;8518;53.236;10.384;2023-04-24T12:00:03;3.17;;;2.83;;
16800;SDS011;8518;53.236;10.384;2023-04-24T12:02:30;3.17;;;2.80;;
16800;SDS011;8518;53.236;10.384;2023-04-24T12:04:55;4.50;;;2.90;;
16800;SDS011;8518;53.236;10.384;2023-04-24T12:07:23;2.80;;;2.60;;
16800;SDS011;8518;53.236;10.384;2023-04-24T12:09:58;2.50;;;2.30;;
16800;SDS011;8518;53.236;10.384;2023-04-24T12:12:28;3.13;;;2.43;;
16800;SDS011;8518;53.236;10.384;2023-04-24T12:14:57;2.80;;;2.47;;
16800;SDS011;8518;53.236;10.384;2023-04-24T12:17:24;3.33;;;2.47;;
16800;SDS011;8518;53.236;10.384;2023-04-24T12:19:52;2.60;;;2.40;;
16800;SDS011;8518;53.236;10.384;2023-04-24T12:22:21;2.43;;;2.23;;
16800;SDS011;8518;53.236;10.384;2023-04-24T12:24:57;2.60;;;2.40;;
16800;SDS011;8518;53.236;10.384;2023-04-24T12:27:31;2.70;;;2.50;;
16800;SDS011;8518;53.236;10.384;2023-04-24T12:30:02;3.90;;;2.50;;
16800;SDS011;8518;53.236;10.384;2023-04-24T12:32:30;2.30;;;2.10;;
16800;SDS011;8518;53.236;10.384;2023-04-24T12:34:56;2.40;;;2.10;;
16800;SDS011;8518;53.236;10.384;2023-04-24T12:37:25;3.60;;;2.30;;
16800;SDS011;8518;53.236;10.384;2023-04-24T12:42:27;2.57;;;2.07;;
16800;SDS011;8518;53.236;10.384;2023-04-24T12:44:58;2.13;;;1.93;;
16800;SDS011;8518;53.236;10.384;2023-04-24T12:47:34;1.87;;;1.77;;
16800;SDS011;8518;53.236;10.384;2023-04-24T12:50:01;2.27;;;2.00;;
16800;SDS011;8518;53.236;10.384;2023-04-24T12:52:28;3.70;;;2.10;;
16800;SDS011;8518;53.236;10.384;2023-04-24T12:54:57;2.23;;;2.03;;
16800;SDS011;8518;53.236;10.384;2023-04-24T12:57:25;2.30;;;2.10;;
16800;SDS011;8518;53.236;10.384;2023-04-24T12:59:57;2.27;;;1.93;;
16800;SDS011;8518;53.236;10.384;2023-04-24T13:02:28;1.90;;;1.70;;
16800;SDS011;8518;53.236;10.384;2023-04-24T13:04:57;2.07;;;1.67;;
16800;SDS011;8518;53.236;10.384;2023-04-24T13:07:23;1.70;;;1.60;;
16800;SDS011;8518;53.236;10.384;2023-04-24T13:09:53;1.60;;;1.50;;
16800;SDS011;8518;53.236;10.384;2023-04-24T13:12:21;1.63;;;1.37;;
16800;SDS011;8518;53.236;10.384;2023-04-24T13:14:48;1.67;;;1.50;;
16800;SDS011;8518;53.236;10.384;2023-04-24T13:17:14;2.63;;;1.60;;
16800;SDS011;8518;53.236;10.384;2023-04-24T13:19:42;1.87;;;1.73;;
16800;SDS011;8518;53.236;10.384;2023-04-24T13:22:09;1.83;;;1.50;;
16800;SDS011;8518;53.236;10.384;2023-04-24T13:27:58;1.70;;;1.60;;
16800;SDS011;8518;53.236;10.384;2023-04-24T13:30:24;2.90;;;1.60;;
16800;SDS011;8518;53.236;10.384;2023-04-24T13:36:11;1.23;;;1.17;;
16800;SDS011;8518;53.236;10.384;2023-04-24T13:38:37;2.80;;;1.47;;
16800;SDS011;8518;53.236;10.384;2023-04-24T13:41:03;2.83;;;1.23;;
16800;SDS011;8518;53.236;10.384;2023-04-24T13:46:54;2.67;;;1.47;;
16800;SDS011;8518;53.236;10.384;2023-04-24T13:49:21;1.27;;;1.10;;
16800;SDS011;8518;53.236;10.384;2023-04-24T13:51:49;1.20;;;1.10;;
16800;SDS011;8518;53.236;10.384;2023-04-24T13:57:38;1.30;;;1.20;;
16800;SDS011;8518;53.236;10.384;2023-04-24T14:00:03;2.00;;;1.30;;
16800;SDS011;8518;53.236;10.384;2023-04-24T14:02:31;3.33;;;1.40;;
16800;SDS011;8518;53.236;10.384;2023-04-24T14:04:56;2.07;;;1.27;;
16800;SDS011;8518;53.236;10.384;2023-04-24T14:07:22;1.30;;;1.20;;
16800;SDS011;8518;53.236;10.384;2023-04-24T14:09:48;1.63;;;1.53;;
16800;SDS011;8518;53.236;10.384;2023-04-24T14:12:13;1.63;;;1.17;;
16800;SDS011;8518;53.236;10.384;2023-04-24T14:14:45;1.30;;;1.20;;
16800;SDS011;8518;53.236;10.384;2023-04-24T14:17:11;1.77;;;1.47;;
16800;SDS011;8518;53.236;10.384;2023-04-24T14:19:36;2.47;;;1.10;;
16800;SDS011;8518;53.236;10.384;2023-04-24T14:22:02;1.30;;;1.20;;
16800;SDS011;8518;53.236;10.384;2023-04-24T14:27:51;2.23;;;1.43;;
16800;SDS011;8518;53.236;10.384;2023-04-24T14:30:19;1.90;;;1.53;;
16800;SDS011;8518;53.236;10.384;2023-04-24T14:36:08;1.40;;;1.30;;
16800;SDS011;8518;53.236;10.384;2023-04-24T14:38:37;1.60;;;1.37;;
16800;SDS011;8518;53.236;10.384;2023-04-24T14:41:02;1.90;;;1.20;;
16800;SDS011;8518;53.236;10.384;2023-04-24T14:46:56;2.10;;;1.20;;
16800;SDS011;8518;53.236;10.384;2023-04-24T14:49:27;1.97;;;0.70;;
16800;SDS011;8518;53.236;10.384;2023-04-24T14:55:24;0.40;;;0.40;;
16800;SDS011;8518;53.236;10.384;2023-04-24T15:01:22;0.47;;;0.40;;
16800;SDS011;8518;53.236;10.384;2023-04-24T15:07:11;1.40;;;0.50;;
16800;SDS011;8518;53.236;10.384;2023-04-24T15:09:36;1.00;;;0.50;;
16800;SDS011;8518;53.236;10.384;2023-04-24T15:12:04;0.70;;;0.70;;
16800;SDS011;8518;53.236;10.384;2023-04-24T15:17:52;0.60;;;0.60;;
16800;SDS011;8518;53.236;10.384;2023-04-24T15:20:18;0.57;;;0.53;;
16800;SDS011;8518;53.236;10.384;2023-04-24T15:26:06;0.67;;;0.63;;
16800;SDS011;8518;53.236;10.384;2023-04-24T15:28:31;0.70;;;0.70;;
16800;SDS011;8518;53.236;10.384;2023-04-24T15:30:59;0.90;;;0.90;;
16800;SDS011;8518;53.236;10.384;2023-04-24T15:36:47;1.10;;;1.00;;
16800;SDS011;8518;53.236;10.384;2023-04-24T15:39:13;2.70;;;1.50;;
16800;SDS011;8518;53.236;10.384;2023-04-24T15:41:38;1.40;;;1.30;;
16800;SDS011;8518;53.236;10.384;2023-04-24T15:47:29;1.50;;;1.40;;
16800;SDS011;8518;53.236;10.384;2023-04-24T15:49:54;1.50;;;1.40;;
16800;SDS011;8518;53.236;10.384;2023-04-24T15:52:22;2.83;;;2.40;;
16800;SDS011;8518;53.236;10.384;2023-04-24T15:54:47;3.03;;;2.10;;
16800;SDS011;8518;53.236;10.384;2023-04-24T15:57:13;2.93;;;2.50;;
16800;SDS011;8518;53.236;10.384;2023-04-24T15:59:39;3.17;;;2.87;;
16800;SDS011;8518;53.236;10.384;2023-04-24T16:02:05;3.40;;;3.10;;
16800;SDS011;8518;53.236;10.384;2023-04-24T16:07:55;4.50;;;3.87;;
16800;SDS011;8518;53.236;10.384;2023-04-24T16:10:24;4.20;;;3.87;;
16800;SDS011;8518;53.236;10.384;2023-04-24T16:16:12;4.13;;;3.37;;
16800;SDS011;8518;53.236;10.384;2023-04-24T16:18:41;4.10;;;2.67;;
16800;SDS011;8518;53.236;10.384;2023-04-24T16:21:09;2.97;;;2.03;;
16800;SDS011;8518;53.236;10.384;2023-04-24T16:26:57;3.33;;;2.27;;
16800;SDS011;8518;53.236;10.384;2023-04-24T16:29:23;2.57;;;1.53;;
16800;SDS011;8518;53.236;10.384;2023-04-24T16:31:49;1.40;;;1.30;;
16800;SDS011;8518;53.236;10.384;2023-04-24T16:37:39;2.20;;;1.60;;
16800;SDS011;8518;53.236;10.384;2023-04-24T16:43:27;1.67;;;1.20;;
16800;SDS011;8518;53.236;10.384;2023-04-24T16:45:56;2.63;;;1.73;;
16800;SDS011;8518;53.236;10.384;2023-04-24T16:48:24;1.83;;;1.40;;
16800;SDS011;8518;53.236;10.384;2023-04-24T16:50:50;1.27;;;1.17;;
16800;SDS011;8518;53.236;10.384;2023-04-24T16:56:37;2.97;;;1.57;;
16800;SDS011;8518;53.236;10.384;2023-04-24T17:02:25;2.70;;;1.70;;
16800;SDS011;8518;53.236;10.384;2023-04-24T17:04:51;2.37;;;1.90;;
16800;SDS011;8518;53.236;10.384;2023-04-24T17:07:23;2.20;;;2.00;;
16800;SDS011;8518;53.236;10.384;2023-04-24T17:09:48;2.40;;;2.20;;
16800;SDS011;8518;53.236;10.384;2023-04-24T17:12:14;2.47;;;2.10;;
16800;SDS011;8518;53.236;10.384;2023-04-24T17:14:42;3.73;;;2.30;;
16800;SDS011;8518;53.236;10.384;2023-04-24T17:17:08;2.60;;;2.20;;
16800;SDS011;8518;53.236;10.384;2023-04-24T17:19:34;3.93;;;2.50;;
16800;SDS011;8518;53.236;10.384;2023-04-24T17:22:07;3.80;;;2.43;;
16800;SDS011;8518;53.236;10.384;2023-04-24T17:27:55;3.40;;;2.73;;
16800;SDS011;8518;53.236;10.384;2023-04-24T17:30:21;3.60;;;2.60;;
16800;SDS011;8518;53.236;10.384;2023-04-24T17:36:09;5.30;;;3.20;;
16800;SDS011;8518;53.236;10.384;2023-04-24T17:38:35;5.53;;;2.90;;
16800;SDS011;8518;53.236;10.384;2023-04-24T17:41:01;4.13;;;3.23;;
16800;SDS011;8518;53.236;10.384;2023-04-24T17:46:49;4.70;;;2.97;;
16800;SDS011;8518;53.236;10.384;2023-04-24T17:49:15;5.40;;;3.10;;
16800;SDS011;8518;53.236;10.384;2023-04-24T17:51:41;4.20;;;3.10;;
16800;SDS011;8518;53.236;10.384;2023-04-24T17:57:29;6.50;;;3.30;;
16800;SDS011;8518;53.236;10.384;2023-04-24T17:59:55;7.50;;;3.83;;
16800;SDS011;8518;53.236;10.384;2023-04-24T18:02:21;7.00;;;4.33;;
16800;SDS011;8518;53.236;10.384;2023-04-24T18:04:46;5.97;;;4.37;;
16800;SDS011;8518;53.236;10.384;2023-04-24T18:07:12;6.43;;;4.57;;
16800;SDS011;8518;53.236;10.384;2023-04-24T18:09:38;5.40;;;3.97;;
16800;SDS011;8518;53.236;10.384;2023-04-24T18:12:05;4.57;;;3.70;;
16800;SDS011;8518;53.236;10.384;2023-04-24T18:17:53;6.17;;;3.87;;
16800;SDS011;8518;53.236;10.384;2023-04-24T18:23:43;8.80;;;4.43;;
16800;SDS011;8518;53.236;10.384;2023-04-24T18:26:10;8.03;;;4.67;;
16800;SDS011;8518;53.236;10.384;2023-04-24T18:28:40;6.93;;;4.70;;
16800;SDS011;8518;53.236;10.384;2023-04-24T18:31:09;5.70;;;4.77;;
16800;SDS011;8518;53.236;10.384;2023-04-24T18:36:58;6.53;;;4.07;;
16800;SDS011;8518;53.236;10.384;2023-04-24T18:39:23;5.00;;;4.50;;
16800;SDS011;8518;53.236;10.384;2023-04-24T18:41:50;5.70;;;4.50;;
16800;SDS011;8518;53.236;10.384;2023-04-24T18:47:38;6.70;;;4.63;;
16800;SDS011;8518;53.236;10.384;2023-04-24T18:53:25;4.80;;;4.17;;
16800;SDS011;8518;53.236;10.384;2023-04-24T18:55:51;5.20;;;4.70;;
16800;SDS011;8518;53.236;10.384;2023-04-24T18:58:17;4.77;;;4.27;;
16800;SDS011;8518;53.236;10.384;2023-04-24T19:00:43;5.70;;;4.23;;
16800;SDS011;8518;53.236;10.384;2023-04-24T19:06:30;4.23;;;3.27;;
16800;SDS011;8518;53.236;10.384;2023-04-24T19:12:19;5.60;;;3.20;;
16800;SDS011;8518;53.236;10.384;2023-04-24T19:14:45;5.97;;;2.87;;
16800;SDS011;8518;53.236;10.384;2023-04-24T19:17:14;5.60;;;2.67;;
16800;SDS011;8518;53.236;10.384;2023-04-24T19:19:48;4.63;;;2.73;;
16800;SDS011;8518;53.236;10.384;2023-04-24T19:22:15;3.97;;;2.23;;
16800;SDS011;8518;53.236;10.384;2023-04-24T19:24:41;3.70;;;2.40;;
16800;SDS011;8518;53.236;10.384;2023-04-24T19:27:06;3.40;;;2.50;;
16800;SDS011;8518;53.236;10.384;2023-04-24T19:29:32;6.13;;;2.40;;
16800;SDS011;8518;53.236;10.384;2023-04-24T19:31:57;4.40;;;2.37;;
16800;SDS011;8518;53.236;10.384;2023-04-24T19:37:45;4.50;;;2.50;;
16800;SDS011;8518;53.236;10.384;2023-04-24T19:40:11;3.90;;;2.27;;
16800;SDS011;8518;53.236;10.384;2023-04-24T19:42:37;2.83;;;2.30;;
16800;SDS011;8518;53.236;10.384;2023-04-24T19:45:03;4.53;;;2.40;;
16800;SDS011;8518;53.236;10.384;2023-04-24T19:47:28;4.40;;;2.57;;
16800;SDS011;8518;53.236;10.384;2023-04-24T19:49:56;4.70;;;2.20;;
16800;SDS011;8518;53.236;10.384;2023-04-24T19:52:25;6.43;;;2.20;;
16800;SDS011;8518;53.236;10.384;2023-04-24T19:54:51;3.30;;;2.23;;
16800;SDS011;8518;53.236;10.384;2023-04-24T19:57:20;4.27;;;2.30;;
16800;SDS011;8518;53.236;10.384;2023-04-24T19:59:48;6.03;;;2.50;;